sensor_id;sensor_type;location;lat;lon;timestamp;temperature;humidity
17128;DHT22;8679;50.842;4.322;2022-12-24T00:01:09;11.10;99.90
17128;DHT22;8679;50.842;4.322;2022-12-24T00:03:38;11.10;99.90
17128;DHT22;8679;50.842;4.322;2022-12-24T00:06:07;11.10;99.90
17128;DHT22;8679;50.842;4.322;2022-12-24T00:08:33;11.10;99.90
17128;DHT22;8679;50.842;4.322;2022-12-24T00:11:00;11.10;99.90
17128;DHT22;8679;50.842;4.322;2022-12-24T00:13:26;11.10;99.90
17128;DHT22;8679;50.842;4.322;2022-12-24T00:15:52;11.20;99.90
17128;DHT22;8679;50.842;4.322;2022-12-24T00:18:17;11.20;99.90
17128;DHT22;8679;50.842;4.322;2022-12-24T00:20:47;11.20;99.90
17128;DHT22;8679;50.842;4.322;2022-12-24T00:23:13;11.30;99.90
17128;DHT22;8679;50.842;4.322;2022-12-24T00:25:39;11.20;99.90
17128;DHT22;8679;50.842;4.322;2022-12-24T00:28:05;11.10;99.90
17128;DHT22;8679;50.842;4.322;2022-12-24T00:30:30;11.10;99.90
17128;DHT22;8679;50.842;4.322;2022-12-24T00:32:56;11.00;99.90
17128;DHT22;8679;50.842;4.322;2022-12-24T00:35:22;10.90;99.90
17128;DHT22;8679;50.842;4.322;2022-12-24T00:37:48;10.90;99.90
17128;DHT22;8679;50.842;4.322;2022-12-24T00:40:15;10.90;99.90
17128;DHT22;8679;50.842;4.322;2022-12-24T00:42:41;10.80;99.90
17128;DHT22;8679;50.842;4.322;2022-12-24T00:45:07;10.80;99.90
17128;DHT22;8679;50.842;4.322;2022-12-24T00:47:33;10.70;99.90
17128;DHT22;8679;50.842;4.322;2022-12-24T00:49:58;10.70;99.90
17128;DHT22;8679;50.842;4.322;2022-12-24T00:52:24;10.70;99.90
17128;DHT22;8679;50.842;4.322;2022-12-24T00:54:50;10.70;99.90
17128;DHT22;8679;50.842;4.322;2022-12-24T00:57:15;10.70;99.90
17128;DHT22;8679;50.842;4.322;2022-12-24T00:59:41;10.80;99.90
17128;DHT22;8679;50.842;4.322;2022-12-24T01:02:06;10.70;99.90
17128;DHT22;8679;50.842;4.322;2022-12-24T01:04:32;10.70;99.90
17128;DHT22;8679;50.842;4.322;2022-12-24T01:07:16;10.70;99.90
17128;DHT22;8679;50.842;4.322;2022-12-24T01:09:42;10.70;99.90
17128;DHT22;8679;50.842;4.322;2022-12-24T01:12:08;10.80;99.90
17128;DHT22;8679;50.842;4.322;2022-12-24T01:14:33;10.70;99.90
17128;DHT22;8679;50.842;4.322;2022-12-24T01:16:59;10.70;99.90
17128;DHT22;8679;50.842;4.322;2022-12-24T01:19:24;10.70;99.90
17128;DHT22;8679;50.842;4.322;2022-12-24T01:21:50;10.70;99.90
17128;DHT22;8679;50.842;4.322;2022-12-24T01:24:17;10.60;99.90
17128;DHT22;8679;50.842;4.322;2022-12-24T01:26:42;10.60;99.90
17128;DHT22;8679;50.842;4.322;2022-12-24T01:29:09;10.60;99.90
17128;DHT22;8679;50.842;4.322;2022-12-24T01:31:35;10.50;99.90
17128;DHT22;8679;50.842;4.322;2022-12-24T01:34:01;10.50;99.90
17128;DHT22;8679;50.842;4.322;2022-12-24T01:36:26;10.60;99.90
17128;DHT22;8679;50.842;4.322;2022-12-24T01:38:52;10.70;99.90
17128;DHT22;8679;50.842;4.322;2022-12-24T01:41:20;10.70;99.90
17128;DHT22;8679;50.842;4.322;2022-12-24T01:44:25;10.70;99.90
17128;DHT22;8679;50.842;4.322;2022-12-24T01:49:26;10.70;99.90
17128;DHT22;8679;50.842;4.322;2022-12-24T01:51:59;10.70;99.90
17128;DHT22;8679;50.842;4.322;2022-12-24T01:54:28;10.80;99.90
17128;DHT22;8679;50.842;4.322;2022-12-24T01:57:04;10.80;99.90
17128;DHT22;8679;50.842;4.322;2022-12-24T01:59:32;10.80;99.90
17128;DHT22;8679;50.842;4.322;2022-12-24T02:01:59;10.70;99.90
17128;DHT22;8679;50.842;4.322;2022-12-24T02:04:39;10.70;99.90
17128;DHT22;8679;50.842;4.322;2022-12-24T02:07:06;10.70;99.90
17128;DHT22;8679;50.842;4.322;2022-12-24T02:09:33;10.70;99.90
17128;DHT22;8679;50.842;4.322;2022-12-24T02:12:00;10.80;99.90
17128;DHT22;8679;50.842;4.322;2022-12-24T02:14:27;10.80;99.90
17128;DHT22;8679;50.842;4.322;2022-12-24T02:17:01;10.80;99.90
17128;DHT22;8679;50.842;4.322;2022-12-24T02:30:33;10.90;99.90
17128;DHT22;8679;50.842;4.322;2022-12-24T02:33:41;10.90;99.90
17128;DHT22;8679;50.842;4.322;2022-12-24T02:36:05;10.90;99.90
17128;DHT22;8679;50.842;4.322;2022-12-24T02:38:38;11.00;99.90
17128;DHT22;8679;50.842;4.322;2022-12-24T02:41:12;11.00;99.90
17128;DHT22;8679;50.842;4.322;2022-12-24T02:43:43;11.00;99.90
17128;DHT22;8679;50.842;4.322;2022-12-24T02:46:22;10.90;99.90
17128;DHT22;8679;50.842;4.322;2022-12-24T02:48:49;11.00;99.90
17128;DHT22;8679;50.842;4.322;2022-12-24T02:51:16;10.90;99.90
17128;DHT22;8679;50.842;4.322;2022-12-24T02:53:46;10.90;99.90
17128;DHT22;8679;50.842;4.322;2022-12-24T02:56:30;10.90;99.90
17128;DHT22;8679;50.842;4.322;2022-12-24T03:04:30;10.80;99.90
17128;DHT22;8679;50.842;4.322;2022-12-24T03:07:37;10.80;99.90
17128;DHT22;8679;50.842;4.322;2022-12-24T03:12:57;10.70;99.90
17128;DHT22;8679;50.842;4.322;2022-12-24T03:15:26;10.70;99.90
17128;DHT22;8679;50.842;4.322;2022-12-24T03:17:56;10.70;99.90
17128;DHT22;8679;50.842;4.322;2022-12-24T03:20:26;10.70;99.90
17128;DHT22;8679;50.842;4.322;2022-12-24T03:22:54;10.70;99.90
17128;DHT22;8679;50.842;4.322;2022-12-24T03:25:23;10.70;99.90
17128;DHT22;8679;50.842;4.322;2022-12-24T03:27:50;10.70;99.90
17128;DHT22;8679;50.842;4.322;2022-12-24T03:30:16;10.70;99.90
17128;DHT22;8679;50.842;4.322;2022-12-24T03:32:43;10.70;99.90
17128;DHT22;8679;50.842;4.322;2022-12-24T03:35:09;10.70;99.90
17128;DHT22;8679;50.842;4.322;2022-12-24T03:37:36;10.70;99.90
17128;DHT22;8679;50.842;4.322;2022-12-24T03:40:03;10.70;99.90
17128;DHT22;8679;50.842;4.322;2022-12-24T03:42:29;10.70;99.90
17128;DHT22;8679;50.842;4.322;2022-12-24T03:44:55;10.80;99.90
17128;DHT22;8679;50.842;4.322;2022-12-24T03:47:21;10.90;99.90
17128;DHT22;8679;50.842;4.322;2022-12-24T03:49:46;10.90;99.90
17128;DHT22;8679;50.842;4.322;2022-12-24T03:52:12;10.90;99.90
17128;DHT22;8679;50.842;4.322;2022-12-24T03:54:38;10.90;99.90
17128;DHT22;8679;50.842;4.322;2022-12-24T03:57:04;10.90;99.90
17128;DHT22;8679;50.842;4.322;2022-12-24T03:59:29;10.80;99.90
17128;DHT22;8679;50.842;4.322;2022-12-24T04:01:55;10.90;99.90
17128;DHT22;8679;50.842;4.322;2022-12-24T04:04:21;10.80;99.90
17128;DHT22;8679;50.842;4.322;2022-12-24T04:06:46;10.90;99.90
17128;DHT22;8679;50.842;4.322;2022-12-24T04:09:12;10.90;99.90
17128;DHT22;8679;50.842;4.322;2022-12-24T04:11:37;10.90;99.90
17128;DHT22;8679;50.842;4.322;2022-12-24T04:14:03;10.90;99.90
17128;DHT22;8679;50.842;4.322;2022-12-24T04:16:29;11.00;99.90
17128;DHT22;8679;50.842;4.322;2022-12-24T04:18:55;11.00;99.90
17128;DHT22;8679;50.842;4.322;2022-12-24T04:21:20;11.00;99.90
17128;DHT22;8679;50.842;4.322;2022-12-24T04:23:46;11.00;99.90
17128;DHT22;8679;50.842;4.322;2022-12-24T04:26:13;11.00;99.90
17128;DHT22;8679;50.842;4.322;2022-12-24T04:28:40;10.90;99.90
17128;DHT22;8679;50.842;4.322;2022-12-24T04:31:09;10.90;99.90
17128;DHT22;8679;50.842;4.322;2022-12-24T04:33:35;11.00;99.90
17128;DHT22;8679;50.842;4.322;2022-12-24T04:36:03;11.00;99.90
17128;DHT22;8679;50.842;4.322;2022-12-24T04:38:29;10.90;99.90
17128;DHT22;8679;50.842;4.322;2022-12-24T04:41:00;10.90;99.90
17128;DHT22;8679;50.842;4.322;2022-12-24T04:43:26;10.90;99.90
17128;DHT22;8679;50.842;4.322;2022-12-24T04:45:52;10.90;99.90
17128;DHT22;8679;50.842;4.322;2022-12-24T04:48:18;10.80;99.90
17128;DHT22;8679;50.842;4.322;2022-12-24T04:50:43;10.80;99.90
17128;DHT22;8679;50.842;4.322;2022-12-24T04:53:09;10.80;99.90
17128;DHT22;8679;50.842;4.322;2022-12-24T04:55:35;10.80;99.90
17128;DHT22;8679;50.842;4.322;2022-12-24T04:58:00;10.80;99.90
17128;DHT22;8679;50.842;4.322;2022-12-24T05:00:26;10.80;99.90
17128;DHT22;8679;50.842;4.322;2022-12-24T05:02:51;10.90;99.90
17128;DHT22;8679;50.842;4.322;2022-12-24T05:05:17;10.80;99.90
17128;DHT22;8679;50.842;4.322;2022-12-24T05:07:43;10.80;99.90
17128;DHT22;8679;50.842;4.322;2022-12-24T05:10:09;10.70;99.90
17128;DHT22;8679;50.842;4.322;2022-12-24T05:12:35;10.70;99.90
17128;DHT22;8679;50.842;4.322;2022-12-24T05:15:01;10.70;99.90
17128;DHT22;8679;50.842;4.322;2022-12-24T05:17:26;10.70;99.90
17128;DHT22;8679;50.842;4.322;2022-12-24T05:19:52;10.60;99.90
17128;DHT22;8679;50.842;4.322;2022-12-24T05:22:18;10.60;99.90
17128;DHT22;8679;50.842;4.322;2022-12-24T05:25:02;10.60;99.90
17128;DHT22;8679;50.842;4.322;2022-12-24T05:27:46;10.60;99.90
17128;DHT22;8679;50.842;4.322;2022-12-24T05:30:12;10.60;99.90
17128;DHT22;8679;50.842;4.322;2022-12-24T05:32:37;10.60;99.90
17128;DHT22;8679;50.842;4.322;2022-12-24T05:35:03;10.60;99.90
17128;DHT22;8679;50.842;4.322;2022-12-24T05:37:29;10.60;99.90
17128;DHT22;8679;50.842;4.322;2022-12-24T05:39:55;10.50;99.90
17128;DHT22;8679;50.842;4.322;2022-12-24T05:42:20;10.50;99.90
17128;DHT22;8679;50.842;4.322;2022-12-24T05:44:46;10.60;99.90
17128;DHT22;8679;50.842;4.322;2022-12-24T05:47:11;10.60;99.90
17128;DHT22;8679;50.842;4.322;2022-12-24T05:49:37;10.60;99.90
17128;DHT22;8679;50.842;4.322;2022-12-24T05:52:03;10.60;99.90
17128;DHT22;8679;50.842;4.322;2022-12-24T05:54:29;10.60;99.90
17128;DHT22;8679;50.842;4.322;2022-12-24T05:56:54;10.60;99.90
17128;DHT22;8679;50.842;4.322;2022-12-24T05:59:20;10.60;99.90
17128;DHT22;8679;50.842;4.322;2022-12-24T06:01:46;10.70;99.90
17128;DHT22;8679;50.842;4.322;2022-12-24T06:04:12;10.70;99.90
17128;DHT22;8679;50.842;4.322;2022-12-24T06:06:38;10.70;99.90
17128;DHT22;8679;50.842;4.322;2022-12-24T06:09:04;10.70;99.90
17128;DHT22;8679;50.842;4.322;2022-12-24T06:11:30;10.70;99.90
17128;DHT22;8679;50.842;4.322;2022-12-24T06:13:56;10.70;99.90
17128;DHT22;8679;50.842;4.322;2022-12-24T06:16:23;10.70;99.90
17128;DHT22;8679;50.842;4.322;2022-12-24T06:18:49;10.80;99.90
17128;DHT22;8679;50.842;4.322;2022-12-24T06:21:16;10.70;99.90
17128;DHT22;8679;50.842;4.322;2022-12-24T06:23:43;10.70;99.90
17128;DHT22;8679;50.842;4.322;2022-12-24T06:26:13;10.70;99.90
17128;DHT22;8679;50.842;4.322;2022-12-24T06:28:39;10.70;99.90
17128;DHT22;8679;50.842;4.322;2022-12-24T06:31:06;10.60;99.90
17128;DHT22;8679;50.842;4.322;2022-12-24T06:33:34;10.60;99.90
17128;DHT22;8679;50.842;4.322;2022-12-24T06:35:59;10.70;99.90
17128;DHT22;8679;50.842;4.322;2022-12-24T06:38:25;10.70;99.90
17128;DHT22;8679;50.842;4.322;2022-12-24T06:40:51;10.70;99.90
17128;DHT22;8679;50.842;4.322;2022-12-24T06:43:17;10.60;99.90
17128;DHT22;8679;50.842;4.322;2022-12-24T06:45:46;10.60;99.90
17128;DHT22;8679;50.842;4.322;2022-12-24T06:48:13;10.60;99.90
17128;DHT22;8679;50.842;4.322;2022-12-24T06:50:39;10.70;99.90
17128;DHT22;8679;50.842;4.322;2022-12-24T06:53:05;10.70;99.90
17128;DHT22;8679;50.842;4.322;2022-12-24T06:55:31;10.70;99.90
17128;DHT22;8679;50.842;4.322;2022-12-24T06:57:57;10.70;99.90
17128;DHT22;8679;50.842;4.322;2022-12-24T07:00:23;10.70;99.90
17128;DHT22;8679;50.842;4.322;2022-12-24T07:02:49;10.70;99.90
17128;DHT22;8679;50.842;4.322;2022-12-24T07:05:15;10.70;99.90
17128;DHT22;8679;50.842;4.322;2022-12-24T07:07:42;10.70;99.90
17128;DHT22;8679;50.842;4.322;2022-12-24T07:10:14;10.70;99.90
17128;DHT22;8679;50.842;4.322;2022-12-24T07:12:40;10.70;99.90
17128;DHT22;8679;50.842;4.322;2022-12-24T07:15:07;10.70;99.90
17128;DHT22;8679;50.842;4.322;2022-12-24T07:17:33;10.70;99.90
17128;DHT22;8679;50.842;4.322;2022-12-24T07:19:58;10.70;99.90
17128;DHT22;8679;50.842;4.322;2022-12-24T07:22:24;10.70;99.90
17128;DHT22;8679;50.842;4.322;2022-12-24T07:24:49;10.70;99.90
17128;DHT22;8679;50.842;4.322;2022-12-24T07:27:15;10.70;99.90
17128;DHT22;8679;50.842;4.322;2022-12-24T07:29:41;10.70;99.90
17128;DHT22;8679;50.842;4.322;2022-12-24T07:32:06;10.70;99.90
17128;DHT22;8679;50.842;4.322;2022-12-24T07:34:32;10.60;99.90
17128;DHT22;8679;50.842;4.322;2022-12-24T07:36:58;10.60;99.90
17128;DHT22;8679;50.842;4.322;2022-12-24T07:39:23;10.60;99.90
17128;DHT22;8679;50.842;4.322;2022-12-24T07:41:49;10.50;99.90
17128;DHT22;8679;50.842;4.322;2022-12-24T07:44:15;10.50;99.90
17128;DHT22;8679;50.842;4.322;2022-12-24T07:46:41;10.50;99.90
17128;DHT22;8679;50.842;4.322;2022-12-24T07:49:07;10.50;99.90
17128;DHT22;8679;50.842;4.322;2022-12-24T07:51:32;10.50;99.90
17128;DHT22;8679;50.842;4.322;2022-12-24T07:53:58;10.40;99.90
17128;DHT22;8679;50.842;4.322;2022-12-24T07:56:24;10.40;99.90
17128;DHT22;8679;50.842;4.322;2022-12-24T07:58:51;10.30;99.90
17128;DHT22;8679;50.842;4.322;2022-12-24T08:01:17;10.30;99.90
17128;DHT22;8679;50.842;4.322;2022-12-24T08:03:43;10.40;99.90
17128;DHT22;8679;50.842;4.322;2022-12-24T08:06:09;10.30;99.90
17128;DHT22;8679;50.842;4.322;2022-12-24T08:08:36;10.40;99.90
17128;DHT22;8679;50.842;4.322;2022-12-24T08:11:04;10.40;99.90
17128;DHT22;8679;50.842;4.322;2022-12-24T08:13:30;10.40;99.90
17128;DHT22;8679;50.842;4.322;2022-12-24T08:15:55;10.50;99.90
17128;DHT22;8679;50.842;4.322;2022-12-24T08:18:21;10.50;99.90
17128;DHT22;8679;50.842;4.322;2022-12-24T08:20:47;10.50;99.90
17128;DHT22;8679;50.842;4.322;2022-12-24T08:23:13;10.50;99.90
17128;DHT22;8679;50.842;4.322;2022-12-24T08:25:42;10.50;99.90
17128;DHT22;8679;50.842;4.322;2022-12-24T08:28:08;10.50;99.90
17128;DHT22;8679;50.842;4.322;2022-12-24T08:30:34;10.50;99.90
17128;DHT22;8679;50.842;4.322;2022-12-24T08:33:00;10.50;99.90
17128;DHT22;8679;50.842;4.322;2022-12-24T08:35:26;10.50;99.90
17128;DHT22;8679;50.842;4.322;2022-12-24T08:37:51;10.50;99.90
17128;DHT22;8679;50.842;4.322;2022-12-24T08:40:17;10.60;99.90
17128;DHT22;8679;50.842;4.322;2022-12-24T08:42:43;10.50;99.90
17128;DHT22;8679;50.842;4.322;2022-12-24T08:45:09;10.60;99.90
17128;DHT22;8679;50.842;4.322;2022-12-24T08:47:36;10.60;99.90
17128;DHT22;8679;50.842;4.322;2022-12-24T08:50:03;10.60;99.90
17128;DHT22;8679;50.842;4.322;2022-12-24T08:52:29;10.60;99.90
17128;DHT22;8679;50.842;4.322;2022-12-24T08:54:55;10.60;99.90
17128;DHT22;8679;50.842;4.322;2022-12-24T08:57:21;10.60;99.90
17128;DHT22;8679;50.842;4.322;2022-12-24T08:59:46;10.60;99.90
17128;DHT22;8679;50.842;4.322;2022-12-24T09:02:12;10.60;99.90
17128;DHT22;8679;50.842;4.322;2022-12-24T09:04:38;10.70;99.90
17128;DHT22;8679;50.842;4.322;2022-12-24T09:07:07;10.70;99.90
17128;DHT22;8679;50.842;4.322;2022-12-24T09:09:34;10.80;99.90
17128;DHT22;8679;50.842;4.322;2022-12-24T09:11:59;10.80;99.90
17128;DHT22;8679;50.842;4.322;2022-12-24T09:14:25;10.80;99.90
17128;DHT22;8679;50.842;4.322;2022-12-24T09:16:51;10.90;99.90
17128;DHT22;8679;50.842;4.322;2022-12-24T09:19:16;10.90;99.90
17128;DHT22;8679;50.842;4.322;2022-12-24T09:21:42;10.90;99.90
17128;DHT22;8679;50.842;4.322;2022-12-24T09:24:07;10.90;99.90
17128;DHT22;8679;50.842;4.322;2022-12-24T09:26:33;10.90;99.90
17128;DHT22;8679;50.842;4.322;2022-12-24T09:29:01;11.00;99.90
17128;DHT22;8679;50.842;4.322;2022-12-24T09:31:26;11.00;99.90
17128;DHT22;8679;50.842;4.322;2022-12-24T09:33:52;11.10;99.90
17128;DHT22;8679;50.842;4.322;2022-12-24T09:36:19;11.10;99.90
17128;DHT22;8679;50.842;4.322;2022-12-24T09:38:44;11.10;99.90
17128;DHT22;8679;50.842;4.322;2022-12-24T09:41:38;11.10;99.90
17128;DHT22;8679;50.842;4.322;2022-12-24T09:44:29;11.20;99.90
17128;DHT22;8679;50.842;4.322;2022-12-24T09:46:56;11.20;99.90
17128;DHT22;8679;50.842;4.322;2022-12-24T09:49:27;11.20;99.90
17128;DHT22;8679;50.842;4.322;2022-12-24T09:52:00;11.20;99.90
17128;DHT22;8679;50.842;4.322;2022-12-24T09:54:51;11.20;99.90
17128;DHT22;8679;50.842;4.322;2022-12-24T09:57:40;11.10;99.90
17128;DHT22;8679;50.842;4.322;2022-12-24T10:00:28;11.10;99.90
17128;DHT22;8679;50.842;4.322;2022-12-24T10:02:54;11.20;99.90
17128;DHT22;8679;50.842;4.322;2022-12-24T10:05:33;11.20;99.90
17128;DHT22;8679;50.842;4.322;2022-12-24T10:08:19;11.20;99.90
17128;DHT22;8679;50.842;4.322;2022-12-24T10:11:01;11.20;99.90
17128;DHT22;8679;50.842;4.322;2022-12-24T10:13:49;11.20;99.90
17128;DHT22;8679;50.842;4.322;2022-12-24T10:25:21;11.40;99.90
17128;DHT22;8679;50.842;4.322;2022-12-24T10:27:51;11.40;99.90
17128;DHT22;8679;50.842;4.322;2022-12-24T10:30:21;11.40;99.90
17128;DHT22;8679;50.842;4.322;2022-12-24T10:32:52;11.40;99.90
17128;DHT22;8679;50.842;4.322;2022-12-24T10:35:45;11.40;99.90
17128;DHT22;8679;50.842;4.322;2022-12-24T10:38:11;11.40;99.90
17128;DHT22;8679;50.842;4.322;2022-12-24T10:40:41;11.50;99.90
17128;DHT22;8679;50.842;4.322;2022-12-24T10:43:23;11.50;99.90
17128;DHT22;8679;50.842;4.322;2022-12-24T10:45:54;11.50;99.90
17128;DHT22;8679;50.842;4.322;2022-12-24T10:48:43;11.60;99.90
17128;DHT22;8679;50.842;4.322;2022-12-24T10:51:36;11.60;99.90
17128;DHT22;8679;50.842;4.322;2022-12-24T10:54:13;11.60;99.90
17128;DHT22;8679;50.842;4.322;2022-12-24T10:56:43;11.60;99.90
17128;DHT22;8679;50.842;4.322;2022-12-24T10:59:24;11.70;99.90
17128;DHT22;8679;50.842;4.322;2022-12-24T11:01:50;11.70;99.90
17128;DHT22;8679;50.842;4.322;2022-12-24T11:04:21;11.60;99.90
17128;DHT22;8679;50.842;4.322;2022-12-24T11:06:54;11.70;99.90
17128;DHT22;8679;50.842;4.322;2022-12-24T11:11:51;11.80;99.90
17128;DHT22;8679;50.842;4.322;2022-12-24T11:14:19;11.80;99.90
17128;DHT22;8679;50.842;4.322;2022-12-24T11:16:53;11.90;99.90
17128;DHT22;8679;50.842;4.322;2022-12-24T11:19:39;11.90;99.90
17128;DHT22;8679;50.842;4.322;2022-12-24T11:22:07;12.00;99.90
17128;DHT22;8679;50.842;4.322;2022-12-24T11:24:42;11.90;99.90
17128;DHT22;8679;50.842;4.322;2022-12-24T11:27:39;11.90;99.90
17128;DHT22;8679;50.842;4.322;2022-12-24T11:35:27;11.90;99.90
17128;DHT22;8679;50.842;4.322;2022-12-24T11:43:10;12.10;99.90
17128;DHT22;8679;50.842;4.322;2022-12-24T11:45:38;12.20;99.90
17128;DHT22;8679;50.842;4.322;2022-12-24T11:48:27;12.40;99.90
17128;DHT22;8679;50.842;4.322;2022-12-24T11:51:06;12.50;99.90
17128;DHT22;8679;50.842;4.322;2022-12-24T11:54:01;12.70;99.90
17128;DHT22;8679;50.842;4.322;2022-12-24T11:56:54;12.80;99.90
17128;DHT22;8679;50.842;4.322;2022-12-24T12:04:41;12.90;99.90
17128;DHT22;8679;50.842;4.322;2022-12-24T12:07:29;12.90;99.90
17128;DHT22;8679;50.842;4.322;2022-12-24T12:10:13;13.00;99.90
17128;DHT22;8679;50.842;4.322;2022-12-24T12:12:42;12.90;99.90
17128;DHT22;8679;50.842;4.322;2022-12-24T12:15:16;12.90;99.90
17128;DHT22;8679;50.842;4.322;2022-12-24T12:17:55;12.90;99.90
17128;DHT22;8679;50.842;4.322;2022-12-24T12:20:24;12.80;99.90
17128;DHT22;8679;50.842;4.322;2022-12-24T12:25:50;12.60;99.90
17128;DHT22;8679;50.842;4.322;2022-12-24T12:28:23;12.60;99.90
17128;DHT22;8679;50.842;4.322;2022-12-24T12:31:12;12.50;99.90
17128;DHT22;8679;50.842;4.322;2022-12-24T12:33:45;12.50;99.90
17128;DHT22;8679;50.842;4.322;2022-12-24T12:36:16;12.50;99.90
17128;DHT22;8679;50.842;4.322;2022-12-24T12:38:43;12.50;99.90
17128;DHT22;8679;50.842;4.322;2022-12-24T12:44:36;12.50;99.90
17128;DHT22;8679;50.842;4.322;2022-12-24T12:47:15;12.60;99.90
17128;DHT22;8679;50.842;4.322;2022-12-24T12:50:10;12.80;99.90
17128;DHT22;8679;50.842;4.322;2022-12-24T12:53:01;12.80;99.90
17128;DHT22;8679;50.842;4.322;2022-12-24T12:55:42;12.80;99.90
17128;DHT22;8679;50.842;4.322;2022-12-24T12:58:25;12.90;99.90
17128;DHT22;8679;50.842;4.322;2022-12-24T13:00:55;12.90;99.90
17128;DHT22;8679;50.842;4.322;2022-12-24T13:11:46;13.00;99.90
17128;DHT22;8679;50.842;4.322;2022-12-24T13:23:00;12.90;99.90
17128;DHT22;8679;50.842;4.322;2022-12-24T13:25:36;13.00;99.90
17128;DHT22;8679;50.842;4.322;2022-12-24T13:30:48;13.30;99.90
17128;DHT22;8679;50.842;4.322;2022-12-24T13:38:31;13.60;99.90
17128;DHT22;8679;50.842;4.322;2022-12-24T13:49:18;13.50;99.90
17128;DHT22;8679;50.842;4.322;2022-12-24T13:51:45;13.40;99.90
17128;DHT22;8679;50.842;4.322;2022-12-24T13:54:13;13.50;99.90
17128;DHT22;8679;50.842;4.322;2022-12-24T13:56:40;13.40;99.90
17128;DHT22;8679;50.842;4.322;2022-12-24T13:59:29;13.50;99.90
17128;DHT22;8679;50.842;4.322;2022-12-24T14:01:58;13.40;99.90
17128;DHT22;8679;50.842;4.322;2022-12-24T14:04:29;13.20;99.90
17128;DHT22;8679;50.842;4.322;2022-12-24T14:06:59;13.00;99.90
17128;DHT22;8679;50.842;4.322;2022-12-24T14:09:26;13.00;99.90
17128;DHT22;8679;50.842;4.322;2022-12-24T14:14:38;12.80;99.90
17128;DHT22;8679;50.842;4.322;2022-12-24T14:17:21;12.70;99.90
17128;DHT22;8679;50.842;4.322;2022-12-24T14:19:54;12.80;99.90
17128;DHT22;8679;50.842;4.322;2022-12-24T14:22:37;12.90;99.90
17128;DHT22;8679;50.842;4.322;2022-12-24T14:25:21;13.00;99.90
17128;DHT22;8679;50.842;4.322;2022-12-24T14:28:04;12.90;99.90
17128;DHT22;8679;50.842;4.322;2022-12-24T14:30:31;12.90;99.90
17128;DHT22;8679;50.842;4.322;2022-12-24T14:32:57;12.80;99.90
17128;DHT22;8679;50.842;4.322;2022-12-24T14:35:35;12.80;99.90
17128;DHT22;8679;50.842;4.322;2022-12-24T14:38:07;12.80;99.90
17128;DHT22;8679;50.842;4.322;2022-12-24T14:40:48;12.80;99.90
17128;DHT22;8679;50.842;4.322;2022-12-24T14:43:32;12.70;99.90
17128;DHT22;8679;50.842;4.322;2022-12-24T14:46:26;12.70;99.90
17128;DHT22;8679;50.842;4.322;2022-12-24T14:49:26;12.60;99.90
17128;DHT22;8679;50.842;4.322;2022-12-24T14:52:17;12.70;99.90
17128;DHT22;8679;50.842;4.322;2022-12-24T14:54:46;12.80;99.90
17128;DHT22;8679;50.842;4.322;2022-12-24T14:57:20;12.70;99.90
17128;DHT22;8679;50.842;4.322;2022-12-24T14:59:51;12.60;99.90
17128;DHT22;8679;50.842;4.322;2022-12-24T15:02:42;12.60;99.90
17128;DHT22;8679;50.842;4.322;2022-12-24T15:05:14;12.50;99.90
17128;DHT22;8679;50.842;4.322;2022-12-24T15:07:44;12.50;99.90
17128;DHT22;8679;50.842;4.322;2022-12-24T15:10:27;12.50;99.90
17128;DHT22;8679;50.842;4.322;2022-12-24T15:12:54;12.40;99.90
17128;DHT22;8679;50.842;4.322;2022-12-24T15:15:21;12.50;99.90
17128;DHT22;8679;50.842;4.322;2022-12-24T15:17:47;12.40;99.90
17128;DHT22;8679;50.842;4.322;2022-12-24T15:20:19;12.40;99.90
17128;DHT22;8679;50.842;4.322;2022-12-24T15:22:49;12.40;99.90
17128;DHT22;8679;50.842;4.322;2022-12-24T15:25:21;12.30;99.90
17128;DHT22;8679;50.842;4.322;2022-12-24T15:27:47;12.40;99.90
17128;DHT22;8679;50.842;4.322;2022-12-24T15:30:21;12.30;99.90
17128;DHT22;8679;50.842;4.322;2022-12-24T15:32:49;12.30;99.90
17128;DHT22;8679;50.842;4.322;2022-12-24T15:35:42;12.30;99.90
17128;DHT22;8679;50.842;4.322;2022-12-24T15:38:26;12.30;99.90
17128;DHT22;8679;50.842;4.322;2022-12-24T15:40:54;12.20;99.90
17128;DHT22;8679;50.842;4.322;2022-12-24T15:43:21;12.20;99.90
17128;DHT22;8679;50.842;4.322;2022-12-24T15:45:47;12.20;99.90
17128;DHT22;8679;50.842;4.322;2022-12-24T15:48:20;12.20;99.90
17128;DHT22;8679;50.842;4.322;2022-12-24T15:50:56;12.20;99.90
17128;DHT22;8679;50.842;4.322;2022-12-24T15:53:27;12.20;99.90
17128;DHT22;8679;50.842;4.322;2022-12-24T15:56:12;12.20;99.90
17128;DHT22;8679;50.842;4.322;2022-12-24T15:58:42;12.20;99.90
17128;DHT22;8679;50.842;4.322;2022-12-24T16:06:16;12.10;99.90
17128;DHT22;8679;50.842;4.322;2022-12-24T16:08:42;12.00;99.90
17128;DHT22;8679;50.842;4.322;2022-12-24T16:16:18;11.90;99.90
17128;DHT22;8679;50.842;4.322;2022-12-24T16:18:50;11.90;99.90
17128;DHT22;8679;50.842;4.322;2022-12-24T16:23:52;11.80;99.90
17128;DHT22;8679;50.842;4.322;2022-12-24T16:26:19;11.80;99.90
17128;DHT22;8679;50.842;4.322;2022-12-24T16:28:46;11.80;99.90
17128;DHT22;8679;50.842;4.322;2022-12-24T16:31:28;11.80;99.90
17128;DHT22;8679;50.842;4.322;2022-12-24T16:33:57;11.80;99.90
17128;DHT22;8679;50.842;4.322;2022-12-24T16:36:23;11.70;99.90
17128;DHT22;8679;50.842;4.322;2022-12-24T16:38:48;11.70;99.90
17128;DHT22;8679;50.842;4.322;2022-12-24T16:41:33;11.60;99.90
17128;DHT22;8679;50.842;4.322;2022-12-24T16:44:18;11.60;99.90
17128;DHT22;8679;50.842;4.322;2022-12-24T16:46:44;11.50;99.90
17128;DHT22;8679;50.842;4.322;2022-12-24T16:49:20;11.40;99.90
17128;DHT22;8679;50.842;4.322;2022-12-24T16:51:46;11.30;99.90
17128;DHT22;8679;50.842;4.322;2022-12-24T16:54:13;11.20;99.90
17128;DHT22;8679;50.842;4.322;2022-12-24T16:56:42;11.20;99.90
17128;DHT22;8679;50.842;4.322;2022-12-24T16:59:19;11.20;99.90
17128;DHT22;8679;50.842;4.322;2022-12-24T17:01:46;11.20;99.90
17128;DHT22;8679;50.842;4.322;2022-12-24T17:04:13;11.20;99.90
17128;DHT22;8679;50.842;4.322;2022-12-24T17:06:39;11.20;99.90
17128;DHT22;8679;50.842;4.322;2022-12-24T17:09:06;11.10;99.90
17128;DHT22;8679;50.842;4.322;2022-12-24T17:11:32;11.10;99.90
17128;DHT22;8679;50.842;4.322;2022-12-24T17:13:58;11.00;99.90
17128;DHT22;8679;50.842;4.322;2022-12-24T17:16:23;11.00;99.90
17128;DHT22;8679;50.842;4.322;2022-12-24T17:18:49;11.10;99.90
17128;DHT22;8679;50.842;4.322;2022-12-24T17:21:16;11.10;99.90
17128;DHT22;8679;50.842;4.322;2022-12-24T17:23:42;11.00;99.90
17128;DHT22;8679;50.842;4.322;2022-12-24T17:26:12;10.90;99.90
17128;DHT22;8679;50.842;4.322;2022-12-24T17:28:39;10.90;99.90
17128;DHT22;8679;50.842;4.322;2022-12-24T17:31:15;10.90;99.90
17128;DHT22;8679;50.842;4.322;2022-12-24T17:33:41;10.80;99.90
17128;DHT22;8679;50.842;4.322;2022-12-24T17:36:08;10.70;99.90
17128;DHT22;8679;50.842;4.322;2022-12-24T17:38:34;10.70;99.90
17128;DHT22;8679;50.842;4.322;2022-12-24T17:41:02;10.70;99.90
17128;DHT22;8679;50.842;4.322;2022-12-24T17:43:28;10.70;99.90
17128;DHT22;8679;50.842;4.322;2022-12-24T17:45:54;10.60;99.90
17128;DHT22;8679;50.842;4.322;2022-12-24T17:48:20;10.60;99.90